Time;durP1;ratioP1;P1;durP2;ratioP2;P2;SDS_P1;SDS_P2;PMS_P1;PMS_P2;Temp;Humidity;BMP_temperature;BMP_pressure;BME280_temperature;BME280_humidity;BME280_pressure;Samples;Min_cycle;Max_cycle;Signal;HPM_P1;HPM_P2
2021/03/27 16:58:32;;;;;;;174.23;57.17;;;8.80;57.10;;;;;;5090977;27;20366;-92
2021/03/27 17:01:42;;;;;;;185.27;68.32;;;8.40;59.10;;;;;;5086081;28;20028;-88
2021/03/27 17:04:25;;;;;;;182.18;68.00;;;8.40;60.90;;;;;;5088491;28;20024;-89
2021/03/27 17:07:05;;;;;;;160.52;60.08;;;8.30;61.70;;;;;;5088756;28;20111;-90
2021/03/27 17:09:38;;;;;;;141.07;55.50;;;8.30;62.50;;;;;;5090651;28;20024;-89
2021/03/27 17:28:33;;;;;;;173.30;67.55;;;8.30;65.10;;;;;;5462753;22;20053;-92
2021/03/27 17:31:05;;;;;;;159.70;59.42;;;8.30;65.30;;;;;;5049529;28;20032;-90
2021/03/27 17:33:46;;;;;;;147.00;58.53;;;8.30;65.50;;;;;;5050061;28;20469;-91
2021/03/27 17:36:38;;;;;;;130.18;54.90;;;8.30;65.70;;;;;;5048330;28;20029;-91
2021/03/27 17:39:16;;;;;;;126.50;52.35;;;8.20;65.70;;;;;;5031819;28;20080;-92
2021/03/27 17:42:14;;;;;;;127.00;54.40;;;8.20;65.90;;;;;;5038052;28;20112;-91
2021/03/27 17:44:52;;;;;;;129.88;51.00;;;8.20;66.20;;;;;;5038809;28;20514;-91
2021/03/27 17:47:34;;;;;;;128.50;54.33;;;8.10;66.40;;;;;;5049879;28;20155;-92
2021/03/27 17:50:21;;;;;;;168.35;65.38;;;8.10;66.60;;;;;;5047799;28;20037;-92
2021/03/27 17:53:17;;;;;;;174.27;67.50;;;8.00;66.70;;;;;;5048500;28;20033;-91
2021/03/27 17:55:50;;;;;;;170.63;67.68;;;7.90;67.00;;;;;;5031452;28;20029;-91
2021/03/27 17:58:58;;;;;;;162.23;61.55;;;7.90;67.20;;;;;;5046284;28;20025;-91
2021/03/27 18:01:56;;;;;;;154.52;56.85;;;7.90;67.30;;;;;;4968497;28;20023;-91
2021/03/27 18:04:43;;;;;;;147.45;49.67;;;7.80;67.40;;;;;;4939527;28;20514;-91
2021/03/27 18:51:24;;;;;;;344.73;121.05;;;6.60;70.80;;;;;;5415621;22;20057;-91
2021/03/27 18:54:13;;;;;;;291.08;103.93;;;6.50;71.00;;;;;;5032611;28;20028;-93
2021/03/27 18:56:46;;;;;;;250.90;91.43;;;6.40;71.20;;;;;;5017840;28;20029;-91
2021/03/27 18:59:15;;;;;;;239.38;87.72;;;6.40;71.20;;;;;;5029810;28;20029;-91
2021/03/27 19:01:50;;;;;;;245.85;95.85;;;6.30;71.50;;;;;;5031289;28;20120;-91
2021/03/27 19:04:18;;;;;;;236.55;87.60;;;6.30;71.80;;;;;;5026389;28;20017;-91
2021/03/27 19:07:01;;;;;;;236.88;90.38;;;6.20;72.10;;;;;;5019010;28;20036;-91
2021/03/27 19:09:34;;;;;;;269.92;100.90;;;6.10;72.10;;;;;;5017924;28;20134;-91
2021/03/27 19:12:07;;;;;;;286.25;114.45;;;6.00;72.30;;;;;;5025289;28;20397;-93
2021/03/27 19:14:32;;;;;;;244.43;99.28;;;6.00;72.70;;;;;;5025394;28;20052;-89
2021/03/27 19:17:33;;;;;;;226.18;99.18;;;5.90;73.00;;;;;;5043623;28;20119;-90
2021/03/27 19:20:41;;;;;;;217.57;93.75;;;5.90;73.70;;;;;;5022734;28;20067;-92
2021/03/27 19:23:25;;;;;;;211.02;85.25;;;5.80;74.90;;;;;;5017374;28;20029;-89
2021/03/27 19:26:07;;;;;;;272.10;109.32;;;5.80;73.50;;;;;;5017346;28;20065;-89
2021/03/27 19:28:34;;;;;;;279.30;113.32;;;5.70;73.20;;;;;;5035293;28;20029;-90
2021/03/27 19:31:25;;;;;;;298.65;125.30;;;5.60;72.80;;;;;;5017286;28;20428;-90
2021/03/27 19:34:08;;;;;;;271.88;113.22;;;5.50;72.70;;;;;;5034936;28;20029;-89
2021/03/27 19:36:38;;;;;;;277.13;116.28;;;5.50;72.80;;;;;;5017139;28;20072;-89
2021/03/27 19:39:25;;;;;;;254.80;102.72;;;5.40;72.80;;;;;;5017102;28;20030;-89
2021/03/27 19:42:08;;;;;;;293.65;123.60;;;5.40;73.10;;;;;;5034455;28;20074;-89
2021/03/27 20:31:44;;;;;;;403.90;174.38;;;3.70;72.00;;;;;;5113735;27;20446;-92
2021/03/27 20:34:34;;;;;;;419.63;190.27;;;3.60;73.80;;;;;;5110148;28;20040;-94
2021/03/27 20:37:25;;;;;;;417.77;197.57;;;3.60;75.50;;;;;;5108401;28;20539;-94
2021/03/27 20:40:14;;;;;;;424.92;201.15;;;3.70;77.20;;;;;;5104835;28;20101;-91
2021/03/27 20:43:22;;;;;;;417.88;194.32;;;3.70;78.00;;;;;;5105293;28;20024;-88
2021/03/27 20:45:57;;;;;;;388.42;186.73;;;3.80;79.50;;;;;;5106444;28;20034;-89
2021/03/27 20:48:43;;;;;;;390.92;183.88;;;3.90;79.20;;;;;;5107589;28;20024;-88
